Time;durP1;ratioP1;P1;durP2;ratioP2;P2;SDS_P1;SDS_P2;PMS_P1;PMS_P2;Temp;Humidity;BMP_temperature;BMP_pressure;BME280_temperature;BME280_humidity;BME280_pressure;Samples;Min_cycle;Max_cycle;Signal;HPM_P1;HPM_P2
2022/04/08 00:00:44;;;;;;;5.90;1.80;;;8.30;99.90;;;;;;2071189;28;20025;-65
2022/04/08 00:01:44;;;;;;;5.57;1.70;;;8.30;99.90;;;;;;2071313;28;20041;-64
2022/04/08 00:02:45;;;;;;;4.20;1.70;;;8.30;99.90;;;;;;2071295;28;20037;-65
2022/04/08 00:03:46;;;;;;;5.50;1.65;;;8.40;99.90;;;;;;2062899;28;20038;-65
2022/04/08 00:04:47;;;;;;;6.68;1.55;;;8.40;99.90;;;;;;2071304;28;20696;-65
2022/04/08 00:05:48;;;;;;;4.78;1.70;;;8.40;99.90;;;;;;2071393;28;20065;-65
2022/04/08 00:06:48;;;;;;;6.40;1.90;;;8.40;99.90;;;;;;2071842;28;20095;-65
2022/04/08 00:07:49;;;;;;;4.93;1.60;;;8.40;99.90;;;;;;2071868;28;20396;-65
2022/04/08 00:08:49;;;;;;;6.40;1.67;;;8.40;99.90;;;;;;2071278;28;20091;-65
2022/04/08 00:09:50;;;;;;;5.93;1.60;;;8.30;99.90;;;;;;2071308;28;20025;-67
2022/04/08 00:10:50;;;;;;;3.25;1.52;;;8.30;99.90;;;;;;2071744;28;20036;-65
2022/04/08 00:11:51;;;;;;;4.00;1.63;;;8.30;99.90;;;;;;2071911;28;21544;-65
2022/04/08 00:12:52;;;;;;;5.63;1.50;;;8.30;99.90;;;;;;2079428;28;20026;-66
2022/04/08 00:13:53;;;;;;;4.78;1.65;;;8.30;99.90;;;;;;2070946;28;20112;-66
2022/04/08 00:14:54;;;;;;;5.47;1.90;;;8.30;99.90;;;;;;2071386;28;20045;-66
2022/04/08 00:15:54;;;;;;;6.47;1.80;;;8.20;99.90;;;;;;2071876;28;20037;-66
2022/04/08 00:16:55;;;;;;;4.28;1.60;;;8.20;99.90;;;;;;2071705;28;20088;-65
2022/04/08 00:17:56;;;;;;;6.03;1.70;;;8.30;99.90;;;;;;2071865;28;20030;-66
2022/04/08 00:18:56;;;;;;;3.70;1.48;;;8.20;99.90;;;;;;2071776;28;20041;-67
2022/04/08 00:19:57;;;;;;;3.08;1.50;;;8.20;99.90;;;;;;2069323;28;20029;-66
2022/04/08 00:20:59;;;;;;;5.75;1.70;;;8.30;99.90;;;;;;2074510;28;20497;-66
2022/04/08 00:22:00;;;;;;;5.13;1.60;;;8.30;99.90;;;;;;2087403;28;20029;-66
2022/04/08 00:23:03;;;;;;;4.60;1.60;;;8.30;99.90;;;;;;2071127;28;20097;-65
2022/04/08 00:24:04;;;;;;;5.70;1.90;;;8.20;99.90;;;;;;2071117;28;20025;-66
2022/04/08 00:25:05;;;;;;;5.75;1.65;;;8.30;99.90;;;;;;2071777;28;20551;-65
2022/04/08 00:26:06;;;;;;;4.60;1.63;;;8.30;99.90;;;;;;2071841;28;20507;-67
2022/04/08 00:27:06;;;;;;;7.00;1.50;;;8.30;99.90;;;;;;2079312;28;20026;-66
2022/04/08 00:28:07;;;;;;;3.53;1.45;;;8.30;99.90;;;;;;2071148;28;20111;-64
2022/04/08 00:29:07;;;;;;;6.30;1.60;;;8.30;99.90;;;;;;2071170;28;20105;-65
2022/04/08 00:30:08;;;;;;;6.53;1.75;;;8.30;99.90;;;;;;2071026;28;20769;-65
2022/04/08 00:31:09;;;;;;;6.18;1.65;;;8.30;99.90;;;;;;2071154;28;20405;-65
2022/04/08 00:32:10;;;;;;;4.35;1.58;;;8.30;99.90;;;;;;2069185;28;20029;-65
2022/04/08 00:33:10;;;;;;;5.70;1.70;;;8.30;99.90;;;;;;2062465;28;20040;-65
2022/04/08 00:34:11;;;;;;;4.95;1.50;;;8.30;99.90;;;;;;2071035;28;20058;-65
2022/04/08 00:35:12;;;;;;;5.07;1.55;;;8.40;99.90;;;;;;2071229;28;20073;-66
2022/04/08 00:36:12;;;;;;;4.32;1.55;;;8.40;99.90;;;;;;2071244;28;20095;-65
2022/04/08 00:37:13;;;;;;;2.78;1.33;;;8.40;99.90;;;;;;2071849;28;20072;-65
2022/04/08 00:38:13;;;;;;;6.38;1.85;;;8.40;99.90;;;;;;2071317;28;20022;-65
2022/04/08 00:39:14;;;;;;;6.15;1.80;;;8.40;99.90;;;;;;2071127;28;20081;-66
2022/04/08 00:40:15;;;;;;;6.10;1.60;;;8.50;99.90;;;;;;2071591;28;20026;-66
2022/04/08 00:41:15;;;;;;;5.00;1.60;;;8.50;99.80;;;;;;2071213;28;20041;-67
2022/04/08 00:42:16;;;;;;;6.75;1.80;;;8.50;99.30;;;;;;2071160;28;20034;-66
2022/04/08 00:43:18;;;;;;;4.25;1.50;;;8.60;97.80;;;;;;2071565;28;20520;-66
2022/04/08 00:44:19;;;;;;;4.50;1.63;;;8.60;98.00;;;;;;2071135;28;20105;-66
2022/04/08 00:45:19;;;;;;;4.70;1.52;;;8.60;97.20;;;;;;2071261;28;20026;-65
2022/04/08 00:46:20;;;;;;;4.13;1.83;;;8.60;97.40;;;;;;2071758;28;20026;-65
2022/04/08 00:47:20;;;;;;;5.93;1.63;;;8.70;95.30;;;;;;2071647;28;20024;-66
2022/04/08 00:48:21;;;;;;;5.07;1.55;;;8.70;95.40;;;;;;2071783;28;20091;-65
2022/04/08 00:49:21;;;;;;;6.55;1.50;;;8.70;94.00;;;;;;2071952;28;20025;-65
2022/04/08 00:50:22;;;;;;;7.57;1.70;;;8.70;93.00;;;;;;2071690;28;20034;-65
2022/04/08 00:51:23;;;;;;;6.65;1.60;;;8.70;93.20;;;;;;2072089;28;20034;-65
2022/04/08 00:52:24;;;;;;;5.55;1.67;;;8.80;92.40;;;;;;2071355;28;20533;-65
2022/04/08 00:53:25;;;;;;;5.10;1.60;;;8.80;91.90;;;;;;2071112;28;20092;-66
2022/04/08 00:54:25;;;;;;;5.68;1.67;;;8.80;91.60;;;;;;2071868;28;20037;-66
2022/04/08 00:55:26;;;;;;;7.10;1.60;;;8.80;90.80;;;;;;2071641;28;20057;-65
2022/04/08 00:56:31;;;;;;;4.32;1.50;;;8.80;91.00;;;;;;2071701;28;20033;-65
2022/04/08 00:57:32;;;;;;;3.90;1.40;;;8.80;90.60;;;;;;2071000;28;20025;-65
2022/04/08 00:58:35;;;;;;;5.30;1.58;;;8.80;90.40;;;;;;2063043;28;20041;-65
2022/04/08 00:59:36;;;;;;;5.85;1.67;;;8.80;88.90;;;;;;2063202;28;20026;-65
2022/04/08 01:00:38;;;;;;;6.13;1.52;;;8.90;88.90;;;;;;2070927;28;20033;-65
2022/04/08 01:01:39;;;;;;;4.85;1.40;;;8.90;87.90;;;;;;2078956;28;20260;-65
2022/04/08 01:02:39;;;;;;;6.55;1.77;;;8.90;87.00;;;;;;2079233;28;20099;-65
2022/04/08 01:03:40;;;;;;;4.25;1.42;;;8.90;84.80;;;;;;2078798;28;20030;-65
2022/04/08 01:04:41;;;;;;;6.28;1.67;;;8.90;83.40;;;;;;2079132;28;20489;-66
2022/04/08 01:05:41;;;;;;;4.95;1.30;;;9.00;81.70;;;;;;2070980;28;20209;-65
2022/04/08 01:06:43;;;;;;;6.43;1.50;;;9.00;82.40;;;;;;2071006;28;20068;-65
2022/04/08 01:07:44;;;;;;;3.90;1.40;;;9.00;82.20;;;;;;2071773;28;20026;-65
2022/04/08 01:08:46;;;;;;;5.72;1.70;;;9.00;82.30;;;;;;2071820;28;20470;-66
2022/04/08 01:09:47;;;;;;;5.78;1.75;;;9.00;81.30;;;;;;2071665;28;20029;-65
2022/04/08 01:10:49;;;;;;;5.93;1.88;;;9.00;84.40;;;;;;2071548;28;20428;-66
2022/04/08 01:11:49;;;;;;;7.72;3.25;;;9.00;83.60;;;;;;2071700;28;20117;-65
2022/04/08 01:12:51;;;;;;;8.32;1.60;;;9.00;82.50;;;;;;2071745;28;20026;-64
2022/04/08 01:13:51;;;;;;;5.32;1.60;;;9.00;84.60;;;;;;2071183;28;20148;-64
2022/04/08 01:14:59;;;;;;;4.43;1.45;;;9.00;85.00;;;;;;2071436;28;20038;-65
2022/04/08 01:15:59;;;;;;;6.03;1.58;;;9.00;84.90;;;;;;2072237;28;20026;-64
2022/04/08 01:17:00;;;;;;;8.57;1.67;;;9.00;84.70;;;;;;2072043;28;20045;-64
2022/04/08 01:18:01;;;;;;;4.88;1.60;;;9.00;84.60;;;;;;2071674;28;20051;-65
2022/04/08 01:19:01;;;;;;;4.05;1.50;;;8.90;84.30;;;;;;2071482;28;20470;-65
2022/04/08 01:20:03;;;;;;;3.63;1.50;;;9.00;81.80;;;;;;2071986;28;20390;-65
2022/04/08 01:21:07;;;;;;;5.97;1.90;;;9.00;80.40;;;;;;2071938;28;20229;-65
2022/04/08 01:22:08;;;;;;;6.80;1.60;;;9.10;79.80;;;;;;2079418;28;20392;-65
2022/04/08 01:23:09;;;;;;;7.70;1.80;;;9.10;79.90;;;;;;2079008;28;20029;-65
2022/04/08 01:24:13;;;;;;;7.07;1.85;;;9.10;79.40;;;;;;2071843;28;20125;-66
2022/04/08 01:25:14;;;;;;;5.78;1.55;;;9.10;80.20;;;;;;2071584;28;20018;-66
2022/04/08 01:26:14;;;;;;;4.88;1.50;;;9.00;81.30;;;;;;2079133;28;20500;-65
2022/04/08 01:27:21;;;;;;;5.18;1.75;;;9.00;82.10;;;;;;2071011;28;20033;-66
2022/04/08 01:28:25;;;;;;;7.75;1.70;;;9.00;79.50;;;;;;2071926;28;20034;-65
2022/04/08 01:29:26;;;;;;;3.92;1.30;;;9.00;79.80;;;;;;2071195;28;20045;-66
2022/04/08 01:30:26;;;;;;;8.00;1.85;;;9.00;81.70;;;;;;2071111;28;20072;-66
2022/04/08 01:31:29;;;;;;;5.35;1.58;;;9.00;81.50;;;;;;2072411;28;20133;-65
2022/04/08 01:32:30;;;;;;;6.25;1.52;;;9.00;81.20;;;;;;2072158;28;20100;-64
2022/04/08 01:33:31;;;;;;;5.65;1.48;;;9.00;79.50;;;;;;2071896;28;20040;-66
2022/04/08 01:34:31;;;;;;;6.97;1.70;;;9.00;80.40;;;;;;2072266;28;20057;-64
2022/04/08 01:35:32;;;;;;;6.65;1.55;;;9.00;79.70;;;;;;2071682;28;20049;-65
2022/04/08 01:36:32;;;;;;;5.55;1.40;;;9.00;80.80;;;;;;2071498;28;20101;-65
2022/04/08 01:37:33;;;;;;;7.05;1.50;;;9.00;81.20;;;;;;2071707;28;20026;-65
2022/04/08 01:38:34;;;;;;;6.78;1.90;;;9.00;81.00;;;;;;2063071;28;20194;-65
2022/04/08 01:39:34;;;;;;;6.35;1.80;;;9.00;82.90;;;;;;2063519;28;20041;-65
2022/04/08 01:40:35;;;;;;;4.93;1.65;;;9.00;81.90;;;;;;2080637;28;20034;-65
2022/04/08 01:41:36;;;;;;;4.10;1.45;;;9.00;83.20;;;;;;2072254;28;20065;-67
2022/04/08 01:42:36;;;;;;;3.28;1.40;;;9.00;82.90;;;;;;2072333;28;20150;-66
2022/04/08 01:43:37;;;;;;;6.68;1.70;;;9.00;85.90;;;;;;2072084;28;20552;-66
2022/04/08 01:44:39;;;;;;;5.00;1.50;;;9.00;86.10;;;;;;2072030;28;20808;-65
2022/04/08 01:45:39;;;;;;;4.80;1.60;;;9.00;87.20;;;;;;2073099;28;20366;-64
2022/04/08 01:46:40;;;;;;;7.20;1.95;;;8.90;86.80;;;;;;2072817;28;20033;-64
2022/04/08 01:47:40;;;;;;;6.60;1.67;;;9.00;90.20;;;;;;2064801;28;20023;-64
2022/04/08 01:48:41;;;;;;;4.88;1.55;;;8.90;90.40;;;;;;2072675;28;20036;-65
2022/04/08 01:49:41;;;;;;;4.70;1.50;;;8.90;91.90;;;;;;2073460;28;20037;-65
2022/04/08 01:50:42;;;;;;;3.47;1.35;;;8.90;91.10;;;;;;2073266;28;20091;-65
2022/04/08 01:51:43;;;;;;;6.85;1.60;;;8.90;91.40;;;;;;2073325;28;20092;-65
2022/04/08 01:52:43;;;;;;;5.13;1.65;;;8.80;93.80;;;;;;2073295;28;20054;-65
2022/04/08 01:53:44;;;;;;;4.45;1.55;;;8.80;94.10;;;;;;2072342;28;20615;-64
2022/04/08 01:54:44;;;;;;;6.78;1.92;;;8.80;93.30;;;;;;2072553;28;20566;-64
2022/04/08 01:55:45;;;;;;;7.18;1.88;;;8.80;93.70;;;;;;2073061;28;20026;-64
2022/04/08 01:56:46;;;;;;;2.88;1.50;;;8.70;95.70;;;;;;2080571;28;20025;-65
2022/04/08 01:57:46;;;;;;;4.30;1.50;;;8.70;94.70;;;;;;2080497;28;20594;-66
2022/04/08 01:58:47;;;;;;;3.72;1.73;;;8.70;94.70;;;;;;2073117;28;20104;-64
2022/04/08 01:59:48;;;;;;;3.38;1.70;;;8.70;96.20;;;;;;2072991;28;20022;-65
2022/04/08 02:00:49;;;;;;;5.65;1.67;;;8.70;95.40;;;;;;2072401;28;20029;-65
2022/04/08 02:01:50;;;;;;;5.63;1.60;;;8.70;95.70;;;;;;2072430;28;20548;-66
2022/04/08 02:02:51;;;;;;;5.90;1.67;;;8.70;96.30;;;;;;2073226;28;20026;-65
2022/04/08 02:03:51;;;;;;;5.03;1.70;;;8.70;97.60;;;;;;2073062;28;20046;-65
2022/04/08 02:04:52;;;;;;;4.90;1.80;;;8.70;96.00;;;;;;2072733;28;20026;-65
2022/04/08 02:05:52;;;;;;;4.32;1.60;;;8.70;97.20;;;;;;2072482;28;20029;-65
2022/04/08 02:06:53;;;;;;;5.70;1.70;;;8.70;96.90;;;;;;2073010;28;20109;-65
2022/04/08 02:07:54;;;;;;;2.78;1.60;;;8.70;97.50;;;;;;2073092;28;20786;-65
2022/04/08 02:08:55;;;;;;;3.58;1.77;;;8.60;98.70;;;;;;2072884;28;20042;-65
2022/04/08 02:09:55;;;;;;;3.47;1.70;;;8.60;99.10;;;;;;2072607;28;20033;-67
2022/04/08 02:10:56;;;;;;;4.13;1.85;;;8.60;98.90;;;;;;2072269;28;20578;-66
2022/04/08 02:11:56;;;;;;;4.13;1.67;;;8.60;98.00;;;;;;2072296;28;20029;-66
2022/04/08 02:12:57;;;;;;;3.97;1.77;;;8.60;98.80;;;;;;2072936;28;20077;-65
2022/04/08 02:13:57;;;;;;;3.53;1.70;;;8.60;97.90;;;;;;2072785;28;20041;-65
2022/04/08 02:14:58;;;;;;;5.22;1.70;;;8.60;97.20;;;;;;2072314;28;20037;-65
2022/04/08 02:15:59;;;;;;;3.53;1.55;;;8.60;97.30;;;;;;2072403;28;20034;-65
2022/04/08 02:16:59;;;;;;;3.80;1.70;;;8.60;98.50;;;;;;2072824;28;20022;-65
2022/04/08 02:18:01;;;;;;;4.68;1.70;;;8.60;99.60;;;;;;2072791;28;20437;-64
2022/04/08 02:19:02;;;;;;;2.95;1.73;;;8.50;98.10;;;;;;2072981;28;20508;-65
2022/04/08 02:20:04;;;;;;;3.15;1.50;;;8.60;98.80;;;;;;2072769;28;20034;-65
2022/04/08 02:21:05;;;;;;;4.93;1.80;;;8.60;98.40;;;;;;2072936;28;20034;-64
2022/04/08 02:22:07;;;;;;;2.92;1.42;;;8.50;99.90;;;;;;2072894;28;20033;-65
2022/04/08 02:23:08;;;;;;;2.53;1.67;;;8.50;99.30;;;;;;2080314;28;20061;-65
2022/04/08 02:24:09;;;;;;;4.97;1.60;;;8.60;97.60;;;;;;2080487;28;20696;-65
2022/04/08 02:25:11;;;;;;;3.33;1.77;;;8.60;97.00;;;;;;2072874;28;20045;-65
2022/04/08 02:26:13;;;;;;;3.22;1.77;;;8.60;97.40;;;;;;2072784;28;20083;-65
2022/04/08 02:27:14;;;;;;;4.63;1.98;;;8.60;98.30;;;;;;2080256;28;20485;-67
2022/04/08 02:28:14;;;;;;;4.57;1.80;;;8.60;97.10;;;;;;2072363;28;20128;-66
2022/04/08 02:29:15;;;;;;;5.72;1.75;;;8.60;99.10;;;;;;2072319;28;20045;-66
2022/04/08 02:30:16;;;;;;;4.43;1.70;;;8.60;97.70;;;;;;2072305;28;20037;-67
2022/04/08 02:31:16;;;;;;;3.60;1.80;;;8.60;97.80;;;;;;2072516;28;20477;-66
2022/04/08 02:32:17;;;;;;;5.65;1.80;;;8.60;98.20;;;;;;2073014;28;20117;-66
2022/04/08 02:33:17;;;;;;;4.03;1.90;;;8.60;97.80;;;;;;2072575;28;20715;-65
2022/04/08 02:34:18;;;;;;;3.25;1.58;;;8.60;96.70;;;;;;2080450;28;20049;-64
2022/04/08 02:35:20;;;;;;;3.55;1.85;;;8.60;97.30;;;;;;2080396;28;20044;-64
2022/04/08 02:36:20;;;;;;;3.72;2.00;;;8.60;96.40;;;;;;2072979;28;20037;-65
2022/04/08 02:37:21;;;;;;;3.83;1.80;;;8.60;97.20;;;;;;2073100;28;20106;-64
2022/04/08 02:38:21;;;;;;;5.07;2.05;;;8.60;96.90;;;;;;2072881;28;20164;-64
2022/04/08 02:39:22;;;;;;;5.68;2.00;;;8.60;96.30;;;;;;2073269;28;20034;-64
2022/04/08 02:40:23;;;;;;;5.63;2.00;;;8.60;96.90;;;;;;2072678;28;20041;-64
2022/04/08 02:41:23;;;;;;;6.50;2.00;;;8.60;97.10;;;;;;2080171;28;20036;-64
2022/04/08 02:42:24;;;;;;;3.50;1.70;;;8.60;96.90;;;;;;2064026;28;20101;-64
2022/04/08 02:43:25;;;;;;;4.57;1.90;;;8.60;96.50;;;;;;2055608;28;20034;-64
2022/04/08 02:44:26;;;;;;;8.20;1.95;;;8.60;96.90;;;;;;2072071;28;20060;-64
2022/04/08 02:45:27;;;;;;;7.00;2.10;;;8.60;96.50;;;;;;2080057;28;20122;-64
2022/04/08 02:46:27;;;;;;;6.93;2.20;;;8.60;97.50;;;;;;2080270;28;20050;-64
2022/04/08 02:47:28;;;;;;;3.97;2.03;;;8.60;96.80;;;;;;2072570;28;20044;-64
2022/04/08 02:48:28;;;;;;;6.03;2.08;;;8.60;97.50;;;;;;2072712;28;20478;-64
2022/04/08 02:49:29;;;;;;;4.85;1.95;;;8.50;96.80;;;;;;2071938;28;20147;-66
2022/04/08 02:50:30;;;;;;;5.78;2.15;;;8.60;97.40;;;;;;2071976;28;20030;-65
2022/04/08 02:51:30;;;;;;;5.95;2.20;;;8.60;97.30;;;;;;2072004;28;20536;-66
2022/04/08 02:52:31;;;;;;;5.35;2.08;;;8.60;97.40;;;;;;2063731;28;20057;-65
2022/04/08 02:53:32;;;;;;;4.95;2.10;;;8.50;97.50;;;;;;2071640;28;20068;-65
2022/04/08 02:54:32;;;;;;;5.05;2.10;;;8.50;97.90;;;;;;2072059;28;20045;-65
2022/04/08 02:55:35;;;;;;;5.32;1.85;;;8.50;98.00;;;;;;2072016;28;20041;-65
2022/04/08 02:56:39;;;;;;;8.07;2.50;;;8.50;98.60;;;;;;2071105;28;19977;-65
2022/04/08 02:57:44;;;;;;;4.13;1.80;;;8.50;98.60;;;;;;2071714;28;20060;-65
2022/04/08 02:58:48;;;;;;;5.22;2.00;;;8.50;98.20;;;;;;2072696;28;20235;-65
2022/04/08 02:59:52;;;;;;;4.95;2.00;;;8.50;98.50;;;;;;2072517;28;20105;-65
2022/04/08 03:00:53;;;;;;;4.43;2.10;;;8.50;98.40;;;;;;2072454;28;20026;-65
2022/04/08 03:01:54;;;;;;;3.55;1.90;;;8.40;97.50;;;;;;2072622;28;20018;-65
2022/04/08 03:02:54;;;;;;;7.13;2.13;;;8.40;98.60;;;;;;2072681;28;20030;-64
2022/04/08 03:03:55;;;;;;;4.50;2.10;;;8.40;98.10;;;;;;2072696;28;20041;-65
2022/04/08 03:04:55;;;;;;;4.85;2.28;;;8.50;98.40;;;;;;2071881;28;20101;-65
2022/04/08 03:05:57;;;;;;;4.97;2.20;;;8.40;98.40;;;;;;2071905;28;20449;-65
2022/04/08 03:07:00;;;;;;;4.00;2.10;;;8.40;99.30;;;;;;2072472;28;20065;-65
2022/04/08 03:08:00;;;;;;;5.55;2.08;;;8.40;99.50;;;;;;2072438;28;20053;-65
2022/04/08 03:09:02;;;;;;;3.92;2.00;;;8.40;99.70;;;;;;2072395;28;20026;-66
2022/04/08 03:10:06;;;;;;;4.00;1.90;;;8.40;99.90;;;;;;2072394;28;20091;-65
2022/04/08 03:11:07;;;;;;;4.05;2.17;;;8.40;99.80;;;;;;2071730;28;20139;-65
2022/04/08 03:12:08;;;;;;;3.95;2.20;;;8.40;99.70;;;;;;2071913;28;20034;-65
2022/04/08 03:13:09;;;;;;;7.10;2.47;;;8.40;99.50;;;;;;2072113;28;20069;-66
2022/04/08 03:14:09;;;;;;;4.63;2.10;;;8.40;99.90;;;;;;2071579;28;20030;-65
2022/04/08 03:15:11;;;;;;;5.68;2.25;;;8.40;99.90;;;;;;2071888;28;20600;-65
2022/04/08 03:16:11;;;;;;;5.47;2.10;;;8.40;99.90;;;;;;2072355;28;20034;-65
2022/04/08 03:17:12;;;;;;;5.15;2.22;;;8.30;99.90;;;;;;2072223;28;20030;-65
2022/04/08 03:18:12;;;;;;;6.50;2.20;;;8.30;99.90;;;;;;2072457;28;20394;-65
2022/04/08 03:19:13;;;;;;;4.85;2.00;;;8.30;99.50;;;;;;2072489;28;20084;-65
2022/04/08 03:20:13;;;;;;;4.53;2.30;;;8.30;99.90;;;;;;2072286;28;20014;-65
2022/04/08 03:21:14;;;;;;;5.75;2.08;;;8.30;99.90;;;;;;2072413;28;20094;-66
2022/04/08 03:22:19;;;;;;;5.85;2.25;;;8.30;99.90;;;;;;2072389;28;20121;-65
2022/04/08 03:23:20;;;;;;;6.25;2.25;;;8.30;99.20;;;;;;2071626;28;20049;-65
2022/04/08 03:24:20;;;;;;;6.15;2.42;;;8.30;98.90;;;;;;2071912;28;20647;-66
2022/04/08 03:25:24;;;;;;;6.88;2.20;;;8.30;99.30;;;;;;2072397;28;20056;-65
2022/04/08 03:26:25;;;;;;;4.25;2.25;;;8.30;99.90;;;;;;2072257;28;20033;-65
2022/04/08 03:27:26;;;;;;;3.22;2.10;;;8.20;99.90;;;;;;2072344;28;20046;-66
2022/04/08 03:28:27;;;;;;;3.75;2.22;;;8.30;99.90;;;;;;2072424;28;20298;-65
2022/04/08 03:29:27;;;;;;;2.92;2.10;;;8.20;99.90;;;;;;2072474;28;20413;-65
2022/04/08 03:30:28;;;;;;;5.35;2.28;;;8.20;99.90;;;;;;2072407;28;20397;-65
2022/04/08 03:31:29;;;;;;;3.45;2.10;;;8.20;99.90;;;;;;2080032;28;20084;-65
2022/04/08 03:32:30;;;;;;;4.70;2.25;;;8.20;99.90;;;;;;2080009;28;20029;-66
2022/04/08 03:33:30;;;;;;;4.07;2.17;;;8.20;99.70;;;;;;2072126;28;20536;-65
2022/04/08 03:34:32;;;;;;;5.57;2.25;;;8.20;99.90;;;;;;2071801;28;20418;-66
2022/04/08 03:35:32;;;;;;;4.90;2.00;;;8.20;99.90;;;;;;2071680;28;20037;-65
2022/04/08 03:36:33;;;;;;;4.15;2.03;;;8.20;99.90;;;;;;2072300;28;20025;-64
2022/04/08 03:37:33;;;;;;;5.03;2.22;;;8.20;99.90;;;;;;2071338;28;20060;-65
2022/04/08 03:38:34;;;;;;;3.88;1.90;;;8.20;99.90;;;;;;2071739;28;20037;-64
2022/04/08 03:39:35;;;;;;;4.25;1.90;;;8.10;99.90;;;;;;2071784;28;20026;-65
2022/04/08 03:40:38;;;;;;;3.92;2.08;;;8.10;99.90;;;;;;2071655;28;20500;-65
2022/04/08 03:41:40;;;;;;;4.47;2.03;;;8.10;99.90;;;;;;2071575;28;20112;-66
2022/04/08 03:42:41;;;;;;;3.28;2.00;;;8.10;99.90;;;;;;2071658;28;20030;-65
2022/04/08 03:43:41;;;;;;;5.57;2.00;;;8.00;99.90;;;;;;2079577;28;20026;-64
2022/04/08 03:44:42;;;;;;;3.70;1.73;;;8.00;99.90;;;;;;2071462;28;20030;-65
2022/04/08 03:45:43;;;;;;;4.75;1.95;;;8.00;99.90;;;;;;2071611;28;20034;-65
2022/04/08 03:46:46;;;;;;;2.03;1.75;;;8.00;99.90;;;;;;2071542;28;20088;-65
2022/04/08 03:47:48;;;;;;;6.15;1.90;;;8.00;99.90;;;;;;2072224;28;20029;-66
2022/04/08 03:48:49;;;;;;;2.70;1.77;;;8.00;99.90;;;;;;2072278;28;20025;-64
2022/04/08 03:49:49;;;;;;;4.60;1.80;;;8.00;99.90;;;;;;2072221;28;20048;-65
2022/04/08 03:50:50;;;;;;;3.50;1.83;;;8.00;99.90;;;;;;2072160;28;20026;-65
2022/04/08 03:51:51;;;;;;;4.13;1.80;;;8.00;99.90;;;;;;2071411;28;20042;-64
2022/04/08 03:52:51;;;;;;;2.75;1.70;;;8.00;99.90;;;;;;2071723;28;20038;-65
2022/04/08 03:53:52;;;;;;;3.58;1.90;;;7.90;99.90;;;;;;2072057;28;20030;-65
2022/04/08 03:54:55;;;;;;;4.28;1.88;;;7.90;99.90;;;;;;2072323;28;20535;-64
2022/04/08 03:55:55;;;;;;;2.60;1.60;;;7.90;99.90;;;;;;2072213;28;20092;-66
2022/04/08 03:56:56;;;;;;;2.40;1.60;;;8.00;99.90;;;;;;2071473;28;20533;-65
2022/04/08 03:57:57;;;;;;;2.97;1.77;;;8.00;99.90;;;;;;2071502;28;20532;-65
2022/04/08 03:58:57;;;;;;;4.63;1.80;;;7.90;99.90;;;;;;2071598;28;20508;-64
2022/04/08 03:59:58;;;;;;;4.68;1.80;;;7.90;99.90;;;;;;2071549;28;20033;-65
2022/04/08 04:00:58;;;;;;;3.30;1.83;;;7.90;99.90;;;;;;2072141;28;20389;-65
2022/04/08 04:02:01;;;;;;;3.13;1.83;;;8.00;99.90;;;;;;2071491;28;20037;-66
2022/04/08 04:03:01;;;;;;;3.88;1.60;;;8.00;99.90;;;;;;2063552;28;20026;-65
2022/04/08 04:04:03;;;;;;;2.42;1.88;;;8.00;99.90;;;;;;2070993;28;20080;-65
2022/04/08 04:05:04;;;;;;;3.28;1.60;;;8.00;99.90;;;;;;2071454;28;20114;-65
2022/04/08 04:06:05;;;;;;;3.88;1.70;;;7.90;99.90;;;;;;2071458;28;20036;-65
2022/04/08 04:07:05;;;;;;;3.30;1.75;;;7.90;99.90;;;;;;2071299;28;20041;-66
2022/04/08 04:08:08;;;;;;;5.00;1.60;;;8.00;99.90;;;;;;2070995;28;20041;-65
2022/04/08 04:09:09;;;;;;;5.57;1.70;;;7.90;99.90;;;;;;2071965;28;20661;-65
2022/04/08 04:10:11;;;;;;;4.05;1.67;;;7.90;99.90;;;;;;2071807;28;20029;-66
2022/04/08 04:11:15;;;;;;;4.47;1.80;;;7.90;99.90;;;;;;2071887;28;20042;-65
2022/04/08 04:12:15;;;;;;;3.30;1.70;;;7.90;99.90;;;;;;2071951;28;20026;-66
2022/04/08 04:13:16;;;;;;;2.78;1.80;;;7.90;99.90;;;;;;2071687;28;20048;-65
2022/04/08 04:14:16;;;;;;;5.32;2.03;;;7.90;99.90;;;;;;2072716;28;20026;-65
2022/04/08 04:15:17;;;;;;;3.88;1.92;;;7.90;99.90;;;;;;2071979;28;20037;-65
2022/04/08 04:16:18;;;;;;;3.83;1.90;;;7.90;99.90;;;;;;2071720;28;20386;-66
2022/04/08 04:17:19;;;;;;;2.92;1.80;;;7.90;99.90;;;;;;2071998;28;20049;-65
2022/04/08 04:18:19;;;;;;;3.90;1.90;;;7.90;99.90;;;;;;2079254;28;20108;-65
2022/04/08 04:19:20;;;;;;;3.80;2.00;;;7.90;99.90;;;;;;2079523;28;20032;-65
2022/04/08 04:20:21;;;;;;;4.57;2.03;;;7.90;99.90;;;;;;2071827;28;20033;-66
2022/04/08 04:21:21;;;;;;;3.28;2.00;;;7.90;99.90;;;;;;2071968;28;20101;-66
2022/04/08 04:22:22;;;;;;;3.15;1.92;;;7.90;99.90;;;;;;2071961;28;20037;-66
2022/04/08 04:23:22;;;;;;;2.58;2.00;;;7.90;99.90;;;;;;2071808;28;20026;-65
2022/04/08 04:24:23;;;;;;;4.22;2.05;;;7.90;99.90;;;;;;2071608;28;20040;-65
2022/04/08 04:25:24;;;;;;;4.35;1.92;;;7.80;99.90;;;;;;2071600;28;20049;-66
2022/04/08 04:26:30;;;;;;;4.10;2.00;;;7.80;99.90;;;;;;2071664;28;20041;-66
2022/04/08 04:27:33;;;;;;;3.47;2.17;;;7.80;99.90;;;;;;2071810;28;20109;-65
2022/04/08 04:28:34;;;;;;;3.33;1.98;;;7.80;99.90;;;;;;2072012;28;20093;-68
2022/04/08 04:29:41;;;;;;;3.60;2.28;;;7.80;99.90;;;;;;2071355;28;20042;-66
2022/04/08 04:30:44;;;;;;;4.50;2.13;;;7.80;99.90;;;;;;2071730;28;20045;-65
2022/04/08 04:31:48;;;;;;;4.05;2.20;;;7.80;99.90;;;;;;2071589;28;20175;-66
2022/04/08 04:32:53;;;;;;;4.10;2.10;;;7.80;99.90;;;;;;2063427;28;20056;-66
2022/04/08 04:33:57;;;;;;;3.72;2.20;;;7.80;99.90;;;;;;2056959;28;20030;-67
2022/04/08 04:35:00;;;;;;;3.63;2.13;;;7.80;99.90;;;;;;2071486;28;20044;-66
2022/04/08 04:36:02;;;;;;;3.15;2.00;;;7.80;99.90;;;;;;2071325;28;20057;-65
2022/04/08 04:37:04;;;;;;;3.80;2.10;;;7.80;99.90;;;;;;2063173;28;20052;-68
2022/04/08 04:38:05;;;;;;;3.47;2.75;;;7.80;99.90;;;;;;2063475;28;20273;-67
2022/04/08 04:39:06;;;;;;;4.30;2.17;;;7.80;99.90;;;;;;2071283;28;20096;-66
2022/04/08 04:40:09;;;;;;;3.53;2.17;;;7.80;99.90;;;;;;2070974;28;20026;-67
2022/04/08 04:41:10;;;;;;;3.33;2.40;;;7.80;99.90;;;;;;2071433;28;20585;-65
2022/04/08 04:42:14;;;;;;;5.28;2.33;;;7.80;99.90;;;;;;2071312;28;20021;-67
2022/04/08 04:43:15;;;;;;;4.00;2.42;;;7.90;99.90;;;;;;2071171;28;20528;-66
2022/04/08 04:44:20;;;;;;;6.18;2.45;;;7.80;99.90;;;;;;2071293;28;20083;-65
2022/04/08 04:45:21;;;;;;;4.32;2.28;;;7.80;99.90;;;;;;2071332;28;20092;-65
2022/04/08 04:46:27;;;;;;;7.15;2.50;;;7.90;99.90;;;;;;2071375;28;20568;-65
2022/04/08 04:47:28;;;;;;;4.00;2.70;;;7.80;99.90;;;;;;2079355;28;20041;-66
2022/04/08 04:48:28;;;;;;;5.75;2.50;;;7.80;99.90;;;;;;2079558;28;20412;-64
2022/04/08 04:49:29;;;;;;;6.55;2.60;;;7.90;99.90;;;;;;2072039;28;20033;-66
2022/04/08 04:50:30;;;;;;;3.72;2.45;;;7.90;99.90;;;;;;2071706;28;20034;-68
2022/04/08 04:51:34;;;;;;;5.30;2.45;;;7.90;99.90;;;;;;2063828;28;20081;-66
2022/04/08 04:52:35;;;;;;;4.78;2.60;;;7.90;99.90;;;;;;2064044;28;20066;-65
2022/04/08 04:53:38;;;;;;;4.35;2.88;;;7.90;99.90;;;;;;2064036;28;20375;-65
2022/04/08 04:54:40;;;;;;;6.13;2.80;;;7.90;99.90;;;;;;2064298;28;20045;-65
2022/04/08 04:55:44;;;;;;;4.15;2.30;;;7.90;99.90;;;;;;2072077;28;20421;-65
2022/04/08 04:56:48;;;;;;;4.05;2.60;;;8.00;99.90;;;;;;2071365;28;20030;-65
2022/04/08 04:57:49;;;;;;;3.90;2.70;;;7.90;99.90;;;;;;2071382;28;20667;-65
2022/04/08 04:58:49;;;;;;;5.30;2.65;;;7.90;99.90;;;;;;2071402;28;20125;-66
2022/04/08 04:59:50;;;;;;;4.28;2.70;;;8.00;99.90;;;;;;2071391;28;20025;-66
2022/04/08 05:00:51;;;;;;;4.35;2.65;;;7.90;99.90;;;;;;2062894;28;20030;-65
2022/04/08 05:01:51;;;;;;;4.15;2.70;;;7.90;99.90;;;;;;2071365;28;20543;-65
2022/04/08 05:02:52;;;;;;;5.43;2.70;;;7.90;99.90;;;;;;2071655;28;20768;-65
2022/04/08 05:03:53;;;;;;;5.28;3.20;;;7.90;99.90;;;;;;2070734;28;20032;-64
2022/04/08 05:04:53;;;;;;;6.18;2.83;;;7.90;99.90;;;;;;2070937;28;20030;-64
2022/04/08 05:05:54;;;;;;;4.50;2.70;;;8.00;99.90;;;;;;2071038;28;20060;-65
2022/04/08 05:06:54;;;;;;;3.97;2.70;;;7.90;99.90;;;;;;2079151;28;20029;-65
2022/04/08 05:07:55;;;;;;;5.47;2.83;;;7.90;99.90;;;;;;2071670;28;20037;-65
2022/04/08 05:08:55;;;;;;;6.30;2.95;;;8.00;99.90;;;;;;2071817;28;20112;-65
2022/04/08 05:09:56;;;;;;;4.93;2.75;;;7.90;99.90;;;;;;2071760;28;20052;-65
2022/04/08 05:10:58;;;;;;;4.25;2.90;;;8.00;99.90;;;;;;2071539;28;20030;-67
2022/04/08 05:11:58;;;;;;;5.57;3.00;;;7.90;99.90;;;;;;2071732;28;20037;-65
2022/04/08 05:12:59;;;;;;;3.58;2.58;;;8.00;99.90;;;;;;2071081;28;20105;-65
2022/04/08 05:14:00;;;;;;;3.15;2.75;;;8.00;99.90;;;;;;2070920;28;20037;-65
2022/04/08 05:15:11;;;;;;;3.97;2.70;;;8.00;99.90;;;;;;2071648;28;20695;-64
2022/04/08 05:16:12;;;;;;;5.13;2.78;;;8.00;99.90;;;;;;2070801;28;20049;-65
2022/04/08 05:17:12;;;;;;;4.40;3.00;;;8.00;99.90;;;;;;2070968;28;20034;-64
2022/04/08 05:18:13;;;;;;;5.97;2.72;;;7.90;99.90;;;;;;2071023;28;20021;-66
2022/04/08 05:19:14;;;;;;;5.85;2.80;;;7.90;99.90;;;;;;2070983;28;20041;-63
2022/04/08 05:20:14;;;;;;;4.50;2.85;;;7.90;99.90;;;;;;2070779;28;20033;-64
2022/04/08 05:21:15;;;;;;;5.40;3.00;;;7.90;99.90;;;;;;2071604;28;20036;-65
2022/04/08 05:22:19;;;;;;;3.28;2.70;;;7.90;99.90;;;;;;2071572;28;20157;-68
2022/04/08 05:23:20;;;;;;;4.13;2.60;;;7.90;99.90;;;;;;2071344;28;20040;-65